Detall de PIREP

Printer-friendly versionPDF version

[2011/02/17 14:50:00]
Flight IATA:CT3223
Pilot Number:011
Company ICAO:CAT
Aircraft Type:B738/F
PAX:160
Departing Airport: LEPA
Destination Airport: LPPT
Alternate Airport:LEMG
Online: VATSIM
Route:TURIA UN733 CJN UN975 ELVAR DCT ESP
Flight Level:F310
No Slew and time accel
No pause
Crash detect
Detect pilot in Cockpit between each 30 and 45 minutes
14:50 Zero fuel Weight: 134990 Lbs, Fuel Weight: 17259 Lbs
14:50 VATSIM:LEPA 171430Z 25013KT 230V290 9999 FEW020 SCT068 14/06 Q0997 NOSIG
14:50 VATSIM:LPPT 171430Z 29016KT 260V320 9999 FEW025 BKN030 14/07 Q1013 NOSIG
14:52 Parking Brakes off
15:02 Take-off
15:02 Take off Weight: 151299 Lbs
15:02 Wind: 253º @ 013 Knots Heading: 240º
15:02 POS N39º 33´ 01´´ E002º 43´ 01´´
15:02 Flaps:4 at 201 Knots
15:03 Gear Up: 204 Knots
15:03 Flaps:3 at 244 Knots
15:03 Flaps:2 at 245 Knots
15:04 Flaps:1 at 247 Knots
15:04 Flaps:0 at 247 Knots
15:17 Wind:272º@071 Knots Heading: 269º Ground Speed: 340 Knots Altitude 30032 ft
15:17 TOC
15:17 Fuel Weight: 13428 Lb
15:32 Wind:290º@095 Knots Heading: 294º Ground Speed: 375 Knots Altitude 30583 ft
15:47 Wind:291º@074 Knots Heading: 263º Ground Speed: 398 Knots Altitude 30675 ft
16:02 Wind:291º@072 Knots Heading: 263º Ground Speed: 406 Knots Altitude 30688 ft
16:17 Wind:281º@083 Knots Heading: 247º Ground Speed: 407 Knots Altitude 30915 ft
16:20 TOD
16:20 Fuel Weight: 7176 Lb
16:32 Wind:319º@030 Knots Heading: 249º Ground Speed: 337 Knots Altitude 10331 ft
16:41 Flaps:1 at 246 Knots
16:41 Flaps:2 at 241 Knots
16:42 Flaps:3 at 254 Knots
16:42 Flaps:4 at 255 Knots
16:42 Flaps:5 at 255 Knots
16:42 Flaps:6 at 195 Knots
16:42 Gear Down: 191 Knots
16:43 Flaps:8 at 170 Knots
16:45 TouchDown:Rate -249 ft/min Speed: 110 Knots
16:45 VATSIM:LPPT 171630Z 31013KT 280V340 9999 SCT040 14/06 Q1014 NOSIG
16:45 Land
16:45 Wind:338º@012 Knots
16:45 Heading: 021º
16:45 Flight Duration: 01:43
16:45 Landing Weight: 141200 Lbs
16:45 POS N38º 46´ 52´´ W009º 08´ 09´´
16:48 Parking brakes on
16:48 Block to Block Duration: 01:57
16:48 Final Fuel: 5921 Lbls
16:48 Spent Fuel: 11338 Lbls
16:48 Flight Length: 575 NM
16:48 TOD Land Length: 87 NM

Exportar CSV

Powered by Drupal - Modified by Danger4k